createdAt,value
2023-02-14T00:00:47.872Z,8.13
2023-02-14T00:03:14.831Z,7.97
2023-02-14T00:05:41.274Z,7.01
2023-02-14T00:08:07.661Z,7.97
2023-02-14T00:10:34.065Z,7.48
2023-02-14T00:13:00.508Z,8.11
2023-02-14T00:15:27.056Z,7.92
2023-02-14T00:17:55.745Z,7.94
2023-02-14T00:20:23.553Z,7.87
2023-02-14T00:22:50.173Z,7.98
2023-02-14T00:25:16.919Z,7.96
2023-02-14T00:27:43.293Z,7.67
2023-02-14T00:30:11.389Z,7.10
2023-02-14T00:32:39.395Z,7.72
2023-02-14T00:35:06.956Z,7.50
2023-02-14T00:37:33.667Z,7.06
2023-02-14T00:40:00.058Z,7.75
2023-02-14T00:42:26.905Z,7.10
2023-02-14T00:44:53.270Z,6.92
2023-02-14T00:47:19.651Z,7.69
2023-02-14T00:49:47.272Z,7.50
2023-02-14T00:52:13.922Z,7.14
2023-02-14T00:54:40.288Z,6.72
2023-02-14T00:57:07.011Z,6.97
2023-02-14T00:59:33.367Z,7.15
2023-02-14T01:01:59.753Z,6.67
2023-02-14T01:04:26.176Z,7.26
2023-02-14T01:06:52.523Z,7.05
2023-02-14T01:09:18.877Z,7.06
2023-02-14T01:11:45.197Z,6.97
2023-02-14T01:14:11.613Z,6.84
2023-02-14T01:16:39.097Z,6.83
2023-02-14T01:19:05.567Z,6.58
2023-02-14T01:21:33.682Z,6.82
2023-02-14T01:24:04.437Z,6.94
2023-02-14T01:26:30.909Z,6.43
2023-02-14T01:28:57.574Z,7.17
2023-02-14T01:31:27.038Z,7.03
2023-02-14T01:33:54.406Z,7.18
2023-02-14T01:36:24.965Z,7.13
2023-02-14T01:38:56.649Z,6.49
2023-02-14T01:41:24.957Z,6.78
2023-02-14T01:43:57.440Z,7.07
2023-02-14T01:46:26.016Z,6.41
2023-02-14T01:48:55.785Z,6.73
2023-02-14T01:51:23.331Z,6.86
2023-02-14T01:53:52.157Z,6.78
2023-02-14T01:56:25.190Z,6.97
2023-02-14T01:58:56.070Z,6.75
2023-02-14T02:01:23.754Z,6.75
2023-02-14T02:03:56.170Z,6.65
2023-02-14T02:06:27.968Z,6.79
2023-02-14T02:09:30.834Z,6.90
2023-02-14T02:11:57.548Z,6.70
2023-02-14T02:14:24.235Z,6.50
2023-02-14T02:17:21.694Z,6.41
2023-02-14T02:20:23.646Z,6.20
2023-02-14T02:23:08.489Z,6.35
2023-02-14T02:26:05.805Z,6.54
2023-02-14T02:28:51.074Z,6.51
2023-02-14T02:31:45.987Z,6.49
2023-02-14T02:34:27.818Z,6.54
2023-02-14T02:37:35.716Z,6.38
2023-02-14T02:40:08.997Z,6.34
2023-02-14T02:43:32.843Z,6.55
2023-02-14T02:46:21.197Z,6.57
2023-02-14T02:49:03.519Z,6.19
2023-02-14T02:52:13.855Z,6.46
2023-02-14T02:54:48.645Z,6.15
2023-02-14T02:57:28.143Z,6.34
2023-02-14T02:59:57.389Z,6.29
2023-02-14T03:02:31.527Z,6.35
2023-02-14T03:05:00.360Z,6.40
2023-02-14T03:07:35.388Z,6.37
2023-02-14T03:10:29.665Z,6.38
2023-02-14T03:13:33.068Z,6.34
2023-02-14T03:16:30.228Z,5.89
2023-02-14T03:19:20.293Z,6.08
2023-02-14T03:21:57.620Z,6.15
2023-02-14T03:24:30.248Z,5.97
2023-02-14T03:27:03.874Z,6.22
2023-02-14T03:30:02.166Z,5.94
2023-02-14T03:32:34.060Z,5.68
2023-02-14T03:35:05.210Z,5.90
2023-02-14T03:37:38.520Z,5.99
2023-02-14T03:40:04.880Z,5.78
2023-02-14T03:42:37.803Z,5.67
2023-02-14T03:45:08.004Z,5.84
2023-02-14T03:47:39.437Z,5.72
2023-02-14T03:50:25.862Z,5.39
2023-02-14T03:52:54.020Z,5.61
2023-02-14T03:55:28.213Z,5.83
2023-02-14T03:58:06.421Z,5.68
2023-02-14T04:00:36.914Z,5.69
2023-02-14T04:03:11.644Z,5.34
2023-02-14T04:05:42.100Z,5.42
2023-02-14T04:08:08.436Z,5.95
2023-02-14T04:10:34.789Z,5.29
2023-02-14T04:13:01.248Z,5.86
2023-02-14T04:15:27.754Z,5.11
2023-02-14T04:18:12.733Z,5.38
2023-02-14T04:20:39.149Z,5.59
2023-02-14T04:23:05.481Z,5.65
2023-02-14T04:25:32.463Z,4.97
2023-02-14T04:27:58.815Z,5.63
2023-02-14T04:30:25.441Z,5.59
2023-02-14T04:32:51.850Z,4.91
2023-02-14T04:35:18.277Z,5.47
2023-02-14T04:37:45.547Z,5.49
2023-02-14T04:40:12.611Z,5.15
2023-02-14T04:42:38.973Z,5.75
2023-02-14T04:45:05.592Z,5.64
2023-02-14T04:47:31.936Z,5.38
2023-02-14T04:49:58.362Z,5.14
2023-02-14T04:52:24.736Z,5.21
2023-02-14T04:54:51.209Z,5.10
2023-02-14T04:57:17.682Z,5.35
2023-02-14T04:59:44.041Z,5.36
2023-02-14T05:02:10.650Z,5.44
2023-02-14T05:04:37.162Z,5.37
2023-02-14T05:07:03.607Z,4.88
2023-02-14T05:09:30.027Z,5.48
2023-02-14T05:11:56.444Z,5.21
2023-02-14T05:14:22.867Z,5.44
2023-02-14T05:16:49.270Z,5.37
2023-02-14T05:19:15.617Z,5.33
2023-02-14T05:21:42.050Z,5.36
2023-02-14T05:24:08.434Z,4.76
2023-02-14T05:26:34.781Z,4.95
2023-02-14T05:29:01.171Z,4.97
2023-02-14T05:31:27.644Z,5.29
2023-02-14T05:33:56.691Z,5.41
2023-02-14T05:36:23.193Z,5.22
2023-02-14T05:38:49.564Z,5.30
2023-02-14T05:41:15.927Z,5.05
2023-02-14T05:43:42.308Z,4.94
2023-02-14T05:46:09.047Z,4.57
2023-02-14T05:48:35.505Z,4.76
2023-02-14T05:51:09.821Z,5.27
2023-02-14T05:53:36.601Z,4.85
2023-02-14T05:56:03.455Z,4.66
2023-02-14T05:58:30.283Z,5.28
2023-02-14T06:00:58.376Z,4.66
2023-02-14T06:03:25.445Z,4.73
2023-02-14T06:05:52.117Z,4.77
2023-02-14T06:08:18.455Z,5.01
2023-02-14T06:10:44.911Z,4.88
2023-02-14T06:13:11.303Z,5.13
2023-02-14T06:15:38.407Z,5.14
2023-02-14T06:18:07.442Z,5.19
2023-02-14T06:20:34.025Z,5.07
2023-02-14T06:23:00.384Z,4.56
2023-02-14T06:25:26.811Z,5.07
2023-02-14T06:27:56.772Z,4.83
2023-02-14T06:30:23.349Z,5.03
2023-02-14T06:32:50.959Z,5.02
2023-02-14T06:35:17.771Z,4.43
2023-02-14T06:37:45.202Z,4.16
2023-02-14T06:40:13.141Z,4.85
2023-02-14T06:42:39.947Z,4.94
2023-02-14T06:45:07.069Z,4.84
2023-02-14T06:47:34.969Z,4.98
2023-02-14T06:50:04.208Z,4.91
2023-02-14T06:52:31.901Z,4.58
2023-02-14T06:54:58.285Z,4.44
2023-02-14T06:57:24.696Z,4.91
2023-02-14T06:59:51.044Z,4.71
2023-02-14T07:02:17.483Z,4.67
2023-02-14T07:04:43.922Z,4.85
2023-02-14T07:07:10.492Z,4.69
2023-02-14T07:09:37.519Z,4.85
2023-02-14T07:12:04.377Z,4.36
2023-02-14T07:14:30.972Z,3.50
2023-02-14T07:16:57.436Z,4.13
2023-02-14T07:19:23.954Z,4.91
2023-02-14T07:21:50.482Z,4.93
2023-02-14T07:24:16.860Z,4.85
2023-02-14T07:26:48.240Z,5.20
2023-02-14T07:29:14.716Z,5.17
2023-02-14T07:31:41.248Z,5.16
2023-02-14T07:34:07.824Z,5.14
2023-02-14T07:36:34.212Z,5.19
2023-02-14T07:39:00.685Z,4.83
2023-02-14T07:41:27.333Z,5.17
2023-02-14T07:43:53.730Z,5.15
2023-02-14T07:46:20.118Z,5.22
2023-02-14T07:48:46.560Z,5.08
2023-02-14T07:51:12.938Z,5.06
2023-02-14T07:53:39.442Z,5.45
2023-02-14T07:56:06.163Z,5.60
2023-02-14T07:58:32.865Z,5.57
2023-02-14T08:00:59.900Z,5.05
2023-02-14T08:03:26.479Z,5.75
2023-02-14T08:05:57.174Z,5.89
2023-02-14T08:08:25.887Z,5.95
2023-02-14T08:10:52.366Z,5.76
2023-02-14T08:13:18.729Z,5.81
2023-02-14T08:16:03.797Z,6.04
2023-02-14T08:18:31.788Z,6.10
2023-02-14T08:20:58.444Z,5.95
2023-02-14T08:23:25.498Z,6.35
2023-02-14T08:25:52.741Z,5.90
2023-02-14T08:28:21.752Z,6.67
2023-02-14T08:30:48.540Z,6.66
2023-02-14T08:33:15.122Z,6.66
2023-02-14T08:35:42.139Z,6.84
2023-02-14T08:38:08.518Z,7.07
2023-02-14T08:40:36.971Z,7.12
2023-02-14T08:43:07.698Z,6.98
2023-02-14T08:45:34.419Z,7.31
2023-02-14T08:48:10.634Z,6.08
2023-02-14T08:50:38.351Z,7.50
2023-02-14T08:53:09.900Z,7.58
2023-02-14T08:55:36.958Z,7.68
2023-02-14T08:58:04.636Z,7.20
2023-02-14T09:00:31.857Z,7.69
2023-02-14T09:02:58.617Z,7.74
2023-02-14T09:05:35.769Z,7.93
2023-02-14T09:08:03.257Z,7.75
2023-02-14T09:10:32.690Z,8.02
2023-02-14T09:12:59.126Z,7.88
2023-02-14T09:15:25.483Z,8.03
2023-02-14T09:17:51.905Z,8.03
2023-02-14T09:20:18.566Z,8.32
2023-02-14T09:22:46.562Z,8.23
2023-02-14T09:25:16.674Z,8.01
2023-02-14T09:27:43.352Z,8.75
2023-02-14T09:30:10.605Z,8.56
2023-02-14T09:32:37.138Z,7.83
2023-02-14T09:35:22.456Z,9.10
2023-02-14T09:37:48.889Z,9.23
2023-02-14T09:40:19.045Z,9.46
2023-02-14T09:42:48.977Z,9.45
2023-02-14T09:45:25.627Z,9.54
2023-02-14T09:48:10.673Z,9.42
2023-02-14T09:50:43.841Z,8.92
2023-02-14T09:53:22.837Z,9.73
2023-02-14T09:56:01.673Z,9.77
2023-02-14T09:58:49.254Z,10.03
2023-02-14T10:01:25.593Z,9.65
2023-02-14T10:04:18.574Z,10.24
2023-02-14T10:06:53.839Z,10.25
2023-02-14T10:09:45.076Z,10.45
2023-02-14T10:12:20.888Z,10.49
2023-02-14T10:14:48.096Z,10.63
2023-02-14T10:17:40.421Z,10.27
2023-02-14T10:20:19.864Z,10.89
2023-02-14T10:23:02.644Z,11.00
2023-02-14T10:25:40.837Z,10.91
2023-02-14T10:28:11.303Z,11.08
2023-02-14T10:30:40.060Z,11.20
2023-02-14T10:33:16.272Z,11.32
2023-02-14T10:35:52.406Z,11.32
2023-02-14T10:38:25.014Z,11.79
2023-02-14T10:41:26.019Z,12.51
2023-02-14T10:44:05.769Z,15.43
2023-02-14T10:46:50.744Z,18.01
2023-02-14T10:49:44.020Z,19.02
2023-02-14T10:52:28.702Z,20.20
2023-02-14T10:54:59.828Z,21.31
2023-02-14T10:57:26.217Z,20.99
2023-02-14T11:00:20.364Z,21.23
2023-02-14T11:02:50.556Z,21.80
2023-02-14T11:05:32.916Z,22.02
2023-02-14T11:08:00.023Z,21.40
2023-02-14T11:10:30.770Z,21.45
2023-02-14T11:12:57.396Z,21.63
2023-02-14T11:15:32.349Z,21.94
2023-02-14T11:18:26.944Z,22.99
2023-02-14T11:21:13.811Z,22.75
2023-02-14T11:23:45.884Z,22.72
2023-02-14T11:26:33.002Z,22.52
2023-02-14T11:29:10.887Z,22.36
2023-02-14T11:31:39.617Z,21.98
2023-02-14T11:34:31.134Z,22.07
2023-02-14T11:36:57.775Z,22.24
2023-02-14T11:39:33.963Z,22.42
2023-02-14T11:42:04.549Z,22.81
2023-02-14T11:44:33.153Z,23.04
2023-02-14T11:47:30.954Z,22.49
2023-02-14T11:50:20.390Z,22.29
2023-02-14T11:52:54.776Z,21.58
2023-02-14T11:55:29.780Z,21.78
2023-02-14T11:57:57.539Z,21.88
2023-02-14T12:00:26.897Z,21.32
2023-02-14T12:02:55.631Z,21.66
2023-02-14T12:05:35.269Z,21.91
2023-02-14T12:08:05.573Z,21.92
2023-02-14T12:10:35.375Z,21.53
2023-02-14T12:13:07.768Z,21.57
2023-02-14T12:15:57.515Z,21.27
2023-02-14T12:18:47.003Z,22.58
2023-02-14T12:21:36.936Z,23.22
2023-02-14T12:24:11.638Z,23.15
2023-02-14T12:27:04.741Z,23.06
2023-02-14T12:29:37.374Z,22.76
2023-02-14T12:32:32.276Z,22.82
2023-02-14T12:35:07.215Z,22.06
2023-02-14T12:38:03.941Z,21.07
2023-02-14T12:41:08.911Z,21.70
2023-02-14T12:44:01.390Z,21.58
2023-02-14T12:46:45.099Z,21.02
2023-02-14T12:49:14.526Z,20.71
2023-02-14T12:51:40.860Z,21.39
2023-02-14T12:54:16.329Z,21.13
2023-02-14T12:56:48.847Z,21.49
2023-02-14T12:59:28.411Z,21.78
2023-02-14T13:02:37.545Z,21.55
2023-02-14T13:05:39.293Z,21.65
2023-02-14T13:08:24.239Z,21.31
2023-02-14T13:11:08.982Z,21.21
2023-02-14T13:13:41.455Z,20.67
2023-02-14T13:16:32.020Z,20.29
2023-02-14T13:19:06.087Z,19.45
2023-02-14T13:21:35.455Z,19.31
2023-02-14T13:24:21.785Z,18.83
2023-02-14T13:26:57.390Z,18.59
2023-02-14T13:29:27.339Z,17.97
2023-02-14T13:31:58.545Z,17.96
2023-02-14T13:34:32.755Z,17.70
2023-02-14T13:37:05.636Z,17.10
2023-02-14T13:39:38.395Z,17.27
2023-02-14T13:42:06.627Z,17.13
2023-02-14T13:44:50.670Z,17.09
2023-02-14T13:47:22.874Z,16.88
2023-02-14T13:49:54.068Z,16.44
2023-02-14T13:52:39.211Z,16.95
2023-02-14T13:55:15.753Z,16.93
2023-02-14T13:57:42.591Z,16.55
2023-02-14T14:00:18.785Z,16.86
2023-02-14T14:02:46.288Z,16.82
2023-02-14T14:05:35.460Z,16.86
2023-02-14T14:08:20.197Z,16.84
2023-02-14T14:10:48.126Z,16.86
2023-02-14T14:13:42.631Z,16.89
2023-02-14T14:16:24.550Z,16.89
2023-02-14T14:18:54.175Z,16.85
2023-02-14T14:21:25.163Z,16.56
2023-02-14T14:24:20.662Z,16.83
2023-02-14T14:26:50.603Z,16.89
2023-02-14T14:29:36.079Z,16.89
2023-02-14T14:32:34.717Z,16.89
2023-02-14T14:35:08.197Z,16.90
2023-02-14T14:37:45.600Z,16.89
2023-02-14T14:40:27.126Z,16.79
2023-02-14T14:42:55.736Z,16.70
2023-02-14T14:45:26.529Z,16.77
2023-02-14T14:47:56.365Z,16.60
2023-02-14T14:50:25.778Z,16.07
2023-02-14T14:52:55.586Z,16.14
2023-02-14T14:55:26.496Z,16.57
2023-02-14T14:57:55.830Z,16.85
2023-02-14T15:00:24.449Z,16.69
2023-02-14T15:02:56.804Z,16.65
2023-02-14T15:05:43.820Z,16.71
2023-02-14T15:08:32.870Z,16.30
2023-02-14T15:11:39.737Z,16.59
2023-02-14T15:14:13.297Z,16.67
2023-02-14T15:16:51.960Z,16.62
2023-02-14T15:19:31.289Z,15.99
2023-02-14T15:22:05.823Z,15.96
2023-02-14T15:24:35.648Z,16.67
2023-02-14T15:27:02.942Z,16.04
2023-02-14T15:29:32.568Z,16.13
2023-02-14T15:32:03.115Z,15.29
2023-02-14T15:34:37.764Z,16.30
2023-02-14T15:37:39.997Z,16.45
2023-02-14T15:40:08.680Z,16.36
2023-02-14T15:42:40.583Z,16.32
2023-02-14T15:45:28.119Z,16.48
2023-02-14T15:48:02.754Z,16.46
2023-02-14T15:50:32.247Z,16.38
2023-02-14T15:53:26.793Z,16.21
2023-02-14T15:55:54.928Z,16.00
2023-02-14T15:58:38.784Z,15.88
2023-02-14T16:01:06.165Z,15.61
2023-02-14T16:03:37.010Z,16.11
2023-02-14T16:06:04.759Z,15.96
2023-02-14T16:08:35.096Z,15.53
2023-02-14T16:11:30.636Z,15.92
2023-02-14T16:13:57.374Z,15.25
2023-02-14T16:16:23.879Z,15.93
2023-02-14T16:18:56.531Z,15.57
2023-02-14T16:21:24.340Z,15.29
2023-02-14T16:24:11.982Z,15.22
2023-02-14T16:26:41.207Z,14.95
2023-02-14T16:29:10.047Z,14.84
2023-02-14T16:31:51.882Z,14.71
2023-02-14T16:34:18.465Z,14.57
2023-02-14T16:36:45.463Z,14.45
2023-02-14T16:39:24.722Z,14.53
2023-02-14T16:41:54.126Z,14.71
2023-02-14T16:44:20.527Z,14.59
2023-02-14T16:46:46.903Z,13.90
2023-02-14T16:49:14.665Z,14.33
2023-02-14T16:51:44.216Z,14.30
2023-02-14T16:54:24.006Z,13.42
2023-02-14T16:56:57.447Z,13.76
2023-02-14T16:59:23.794Z,13.97
2023-02-14T17:01:50.409Z,14.11
2023-02-14T17:04:17.403Z,13.84
2023-02-14T17:06:49.667Z,13.81
2023-02-14T17:09:20.055Z,13.69
2023-02-14T17:11:50.475Z,13.58
2023-02-14T17:14:22.862Z,13.48
2023-02-14T17:16:49.648Z,13.46
2023-02-14T17:19:16.487Z,12.94
2023-02-14T17:21:42.980Z,13.43
2023-02-14T17:24:09.488Z,13.31
2023-02-14T17:26:37.970Z,12.80
2023-02-14T17:29:06.718Z,13.20
2023-02-14T17:31:34.798Z,13.09
2023-02-14T17:34:01.257Z,12.57
2023-02-14T17:36:27.826Z,12.96
2023-02-14T17:38:54.778Z,12.91
2023-02-14T17:41:26.329Z,12.10
2023-02-14T17:43:54.792Z,11.41
2023-02-14T17:46:21.849Z,11.55
2023-02-14T17:48:49.182Z,11.33
2023-02-14T17:51:17.949Z,11.28
2023-02-14T17:53:44.569Z,11.32
2023-02-14T17:56:13.880Z,11.93
2023-02-14T17:58:40.668Z,12.09
2023-02-14T18:01:09.724Z,11.56
2023-02-14T18:03:36.274Z,12.02
2023-02-14T18:06:03.573Z,11.98
2023-02-14T18:08:35.350Z,12.13
2023-02-14T18:11:06.364Z,11.87
2023-02-14T18:13:33.922Z,11.71
2023-02-14T18:16:12.768Z,11.80
2023-02-14T18:18:39.245Z,11.68
2023-02-14T18:21:08.246Z,11.89
2023-02-14T18:23:35.183Z,11.80
2023-02-14T18:26:06.948Z,11.78
2023-02-14T18:28:34.265Z,11.60
2023-02-14T18:31:11.501Z,11.40
2023-02-14T18:33:39.108Z,11.11
2023-02-14T18:36:08.753Z,10.99
2023-02-14T18:38:35.399Z,10.72
2023-02-14T18:41:07.230Z,11.03
2023-02-14T18:43:34.449Z,10.82
2023-02-14T18:46:05.677Z,11.13
2023-02-14T18:48:33.364Z,11.25
2023-02-14T18:51:14.489Z,10.38
2023-02-14T18:53:42.034Z,11.27
2023-02-14T18:56:14.251Z,9.79
2023-02-14T18:58:44.427Z,10.47
2023-02-14T19:01:19.480Z,9.97
2023-02-14T19:03:45.979Z,10.49
2023-02-14T19:06:12.937Z,10.50
2023-02-14T19:08:40.770Z,10.53
2023-02-14T19:11:13.196Z,10.71
2023-02-14T19:13:40.051Z,10.73
2023-02-14T19:16:12.180Z,10.89
2023-02-14T19:18:39.412Z,10.58
2023-02-14T19:21:17.814Z,10.34
2023-02-14T19:23:44.363Z,9.14
2023-02-14T19:26:13.822Z,9.44
2023-02-14T19:28:41.888Z,9.65
2023-02-14T19:31:08.865Z,10.12
2023-02-14T19:33:40.583Z,10.09
2023-02-14T19:36:09.742Z,8.84
2023-02-14T19:38:36.334Z,10.29
2023-02-14T19:41:03.193Z,9.21
2023-02-14T19:43:29.955Z,9.60
2023-02-14T19:45:56.518Z,10.19
2023-02-14T19:48:23.700Z,9.48
2023-02-14T19:50:50.744Z,10.27
2023-02-14T19:53:17.222Z,10.22
2023-02-14T19:55:43.729Z,9.54
2023-02-14T19:58:10.360Z,10.00
2023-02-14T20:00:37.940Z,9.27
2023-02-14T20:03:04.794Z,9.50
2023-02-14T20:05:31.701Z,9.58
2023-02-14T20:07:58.999Z,9.00
2023-02-14T20:10:25.574Z,8.68
2023-02-14T20:12:51.934Z,9.55
2023-02-14T20:15:18.437Z,9.63
2023-02-14T20:17:44.915Z,9.15
2023-02-14T20:20:13.863Z,8.78
2023-02-14T20:22:41.148Z,9.19
2023-02-14T20:25:09.145Z,9.55
2023-02-14T20:27:36.592Z,9.70
2023-02-14T20:30:04.001Z,9.83
2023-02-14T20:32:30.553Z,9.54
2023-02-14T20:34:57.957Z,8.94
2023-02-14T20:37:25.130Z,9.69
2023-02-14T20:39:51.506Z,9.91
2023-02-14T20:42:17.887Z,9.84
2023-02-14T20:44:45.289Z,8.57
2023-02-14T20:47:11.838Z,9.20
2023-02-14T20:49:39.198Z,8.98
2023-02-14T20:52:05.978Z,9.03
2023-02-14T20:54:32.626Z,9.12
2023-02-14T20:56:59.012Z,9.19
2023-02-14T20:59:28.773Z,9.25
2023-02-14T21:01:57.390Z,9.69
2023-02-14T21:04:25.204Z,9.63
2023-02-14T21:06:51.798Z,9.55
2023-02-14T21:09:20.488Z,9.30
2023-02-14T21:11:46.982Z,9.36
2023-02-14T21:14:13.335Z,9.35
2023-02-14T21:16:39.704Z,9.31
2023-02-14T21:19:06.208Z,9.48
2023-02-14T21:21:36.215Z,9.65
2023-02-14T21:24:08.862Z,9.74
2023-02-14T21:26:36.001Z,9.42
2023-02-14T21:29:02.924Z,9.28
2023-02-14T21:31:30.248Z,9.22
2023-02-14T21:33:58.437Z,9.91
2023-02-14T21:36:27.184Z,9.18
2023-02-14T21:38:55.775Z,9.69
2023-02-14T21:41:23.796Z,9.76
2023-02-14T21:43:52.944Z,9.70
2023-02-14T21:46:27.297Z,9.65
2023-02-14T21:49:14.090Z,9.37
2023-02-14T21:51:41.220Z,9.58
2023-02-14T21:54:07.977Z,9.45
2023-02-14T21:56:35.967Z,9.24
2023-02-14T21:59:02.730Z,8.82
2023-02-14T22:01:31.965Z,9.53
2023-02-14T22:03:59.259Z,9.40
2023-02-14T22:06:26.873Z,9.47
2023-02-14T22:08:58.188Z,9.35
2023-02-14T22:11:27.023Z,9.41
2023-02-14T22:13:53.559Z,8.69
2023-02-14T22:16:21.413Z,9.30
2023-02-14T22:18:48.251Z,9.44
2023-02-14T22:21:17.933Z,9.41
2023-02-14T22:23:45.008Z,9.19
2023-02-14T22:26:26.721Z,9.60
2023-02-14T22:28:59.097Z,9.46
2023-02-14T22:31:27.103Z,9.31
2023-02-14T22:33:54.069Z,9.39
2023-02-14T22:36:21.148Z,9.18
2023-02-14T22:38:47.914Z,9.19
2023-02-14T22:41:18.824Z,9.17
2023-02-14T22:43:45.672Z,8.90
2023-02-14T22:46:18.016Z,9.08
2023-02-14T22:48:45.187Z,8.97
2023-02-14T22:51:32.987Z,8.80
2023-02-14T22:54:05.557Z,9.02
2023-02-14T22:56:38.823Z,9.00
2023-02-14T22:59:16.950Z,8.73
2023-02-14T23:01:44.008Z,9.14
2023-02-14T23:04:10.913Z,9.05
2023-02-14T23:06:37.857Z,8.98
2023-02-14T23:09:07.382Z,9.19
2023-02-14T23:11:35.998Z,9.13
2023-02-14T23:14:21.582Z,9.09
2023-02-14T23:17:06.832Z,9.10
2023-02-14T23:19:53.761Z,9.11
2023-02-14T23:22:24.846Z,9.13
2023-02-14T23:24:53.216Z,8.88
2023-02-14T23:27:23.122Z,9.03
2023-02-14T23:29:49.579Z,8.89
2023-02-14T23:32:16.344Z,8.07
2023-02-14T23:34:44.086Z,8.92
2023-02-14T23:37:11.236Z,8.88
2023-02-14T23:39:37.716Z,8.71
2023-02-14T23:42:06.185Z,8.87
2023-02-14T23:44:33.272Z,8.45
2023-02-14T23:47:01.786Z,8.70
2023-02-14T23:49:28.170Z,8.64
2023-02-14T23:51:55.618Z,8.76
2023-02-14T23:54:23.261Z,8.71
2023-02-14T23:56:51.105Z,8.50
2023-02-14T23:59:17.477Z,7.85
